sensor_id;sensor_type;location;lat;lon;timestamp;P1;durP1;ratioP1;P2;durP2;ratioP2
48092;SDS011;33873;47.442;18.902;2023-07-13T00:01:59;8.60;;;2.53;;
48092;SDS011;33873;47.442;18.902;2023-07-13T00:04:27;8.43;;;2.70;;
48092;SDS011;33873;47.442;18.902;2023-07-13T00:06:57;6.43;;;2.60;;
48092;SDS011;33873;47.442;18.902;2023-07-13T00:09:25;5.72;;;2.42;;
48092;SDS011;33873;47.442;18.902;2023-07-13T00:11:54;5.75;;;2.22;;
48092;SDS011;33873;47.442;18.902;2023-07-13T00:14:23;6.18;;;2.65;;
48092;SDS011;33873;47.442;18.902;2023-07-13T00:16:51;4.22;;;1.83;;
48092;SDS011;33873;47.442;18.902;2023-07-13T00:19:19;4.53;;;2.78;;
48092;SDS011;33873;47.442;18.902;2023-07-13T00:21:47;5.32;;;2.35;;
48092;SDS011;33873;47.442;18.902;2023-07-13T00:24:15;3.67;;;1.77;;
48092;SDS011;33873;47.442;18.902;2023-07-13T00:26:45;3.72;;;1.23;;
48092;SDS011;33873;47.442;18.902;2023-07-13T00:29:13;2.80;;;1.30;;
48092;SDS011;33873;47.442;18.902;2023-07-13T00:31:41;2.92;;;1.48;;
48092;SDS011;33873;47.442;18.902;2023-07-13T00:34:09;3.80;;;1.30;;
48092;SDS011;33873;47.442;18.902;2023-07-13T00:36:36;2.20;;;1.08;;
48092;SDS011;33873;47.442;18.902;2023-07-13T00:39:04;7.75;;;1.30;;
48092;SDS011;33873;47.442;18.902;2023-07-13T00:41:32;2.17;;;1.20;;
48092;SDS011;33873;47.442;18.902;2023-07-13T00:43:59;2.08;;;1.02;;
48092;SDS011;33873;47.442;18.902;2023-07-13T00:46:29;4.18;;;1.37;;
48092;SDS011;33873;47.442;18.902;2023-07-13T00:48:59;6.05;;;1.50;;
48092;SDS011;33873;47.442;18.902;2023-07-13T00:54:43;2.80;;;1.30;;
48092;SDS011;33873;47.442;18.902;2023-07-13T00:57:14;3.83;;;1.35;;
48092;SDS011;33873;47.442;18.902;2023-07-13T00:59:45;4.03;;;1.60;;
48092;SDS011;33873;47.442;18.902;2023-07-13T01:02:15;3.55;;;1.52;;
48092;SDS011;33873;47.442;18.902;2023-07-13T01:04:43;4.20;;;1.08;;
48092;SDS011;33873;47.442;18.902;2023-07-13T01:07:11;3.67;;;1.20;;
48092;SDS011;33873;47.442;18.902;2023-07-13T01:09:39;4.00;;;1.67;;
48092;SDS011;33873;47.442;18.902;2023-07-13T01:12:07;2.30;;;0.95;;
48092;SDS011;33873;47.442;18.902;2023-07-13T01:14:35;2.42;;;0.88;;
48092;SDS011;33873;47.442;18.902;2023-07-13T01:17:03;2.67;;;1.02;;
48092;SDS011;33873;47.442;18.902;2023-07-13T01:19:44;3.30;;;1.08;;
48092;SDS011;33873;47.442;18.902;2023-07-13T01:22:14;3.22;;;1.45;;
48092;SDS011;33873;47.442;18.902;2023-07-13T01:24:44;4.87;;;0.93;;
48092;SDS011;33873;47.442;18.902;2023-07-13T01:27:15;3.05;;;1.30;;
48092;SDS011;33873;47.442;18.902;2023-07-13T01:29:46;1.75;;;1.12;;
48092;SDS011;33873;47.442;18.902;2023-07-13T01:32:17;3.17;;;1.42;;
48092;SDS011;33873;47.442;18.902;2023-07-13T01:34:54;2.22;;;1.30;;
48092;SDS011;33873;47.442;18.902;2023-07-13T01:37:23;4.03;;;1.17;;
48092;SDS011;33873;47.442;18.902;2023-07-13T01:39:51;3.35;;;1.10;;
48092;SDS011;33873;47.442;18.902;2023-07-13T01:42:19;2.70;;;1.45;;
48092;SDS011;33873;47.442;18.902;2023-07-13T01:44:47;5.97;;;2.55;;
48092;SDS011;33873;47.442;18.902;2023-07-13T01:47:15;4.22;;;1.83;;
48092;SDS011;33873;47.442;18.902;2023-07-13T01:49:43;6.43;;;2.20;;
48092;SDS011;33873;47.442;18.902;2023-07-13T01:52:13;4.20;;;1.55;;
48092;SDS011;33873;47.442;18.902;2023-07-13T01:54:41;3.87;;;1.50;;
48092;SDS011;33873;47.442;18.902;2023-07-13T01:57:09;3.67;;;1.70;;
48092;SDS011;33873;47.442;18.902;2023-07-13T01:59:36;4.95;;;1.55;;
48092;SDS011;33873;47.442;18.902;2023-07-13T02:02:05;3.80;;;1.45;;
48092;SDS011;33873;47.442;18.902;2023-07-13T02:04:34;4.07;;;1.27;;
48092;SDS011;33873;47.442;18.902;2023-07-13T02:07:01;3.28;;;1.35;;
48092;SDS011;33873;47.442;18.902;2023-07-13T02:09:29;4.03;;;1.58;;
48092;SDS011;33873;47.442;18.902;2023-07-13T02:11:57;4.75;;;1.40;;
48092;SDS011;33873;47.442;18.902;2023-07-13T02:14:30;2.30;;;1.23;;
48092;SDS011;33873;47.442;18.902;2023-07-13T02:16:57;2.22;;;1.05;;
48092;SDS011;33873;47.442;18.902;2023-07-13T02:19:25;3.87;;;1.73;;
48092;SDS011;33873;47.442;18.902;2023-07-13T02:21:53;2.60;;;1.55;;
48092;SDS011;33873;47.442;18.902;2023-07-13T02:24:20;3.05;;;1.33;;
48092;SDS011;33873;47.442;18.902;2023-07-13T02:26:48;2.72;;;1.37;;
48092;SDS011;33873;47.442;18.902;2023-07-13T02:29:16;9.18;;;1.33;;
48092;SDS011;33873;47.442;18.902;2023-07-13T02:31:45;1.98;;;1.30;;
48092;SDS011;33873;47.442;18.902;2023-07-13T02:34:12;4.03;;;1.70;;
48092;SDS011;33873;47.442;18.902;2023-07-13T02:36:40;4.87;;;1.85;;
48092;SDS011;33873;47.442;18.902;2023-07-13T02:39:08;4.65;;;1.77;;
48092;SDS011;33873;47.442;18.902;2023-07-13T02:41:36;2.80;;;1.55;;
48092;SDS011;33873;47.442;18.902;2023-07-13T02:44:04;3.28;;;1.58;;
48092;SDS011;33873;47.442;18.902;2023-07-13T02:46:32;5.10;;;1.75;;
48092;SDS011;33873;47.442;18.902;2023-07-13T02:49:00;4.18;;;1.92;;
48092;SDS011;33873;47.442;18.902;2023-07-13T02:51:28;4.87;;;1.23;;
48092;SDS011;33873;47.442;18.902;2023-07-13T02:53:56;4.55;;;1.62;;
48092;SDS011;33873;47.442;18.902;2023-07-13T02:56:25;3.35;;;1.40;;
48092;SDS011;33873;47.442;18.902;2023-07-13T02:58:54;2.50;;;1.48;;
48092;SDS011;33873;47.442;18.902;2023-07-13T03:01:22;2.47;;;0.93;;
48092;SDS011;33873;47.442;18.902;2023-07-13T03:03:51;3.20;;;1.37;;
48092;SDS011;33873;47.442;18.902;2023-07-13T03:06:19;5.35;;;2.05;;
48092;SDS011;33873;47.442;18.902;2023-07-13T03:08:48;3.50;;;1.83;;
48092;SDS011;33873;47.442;18.902;2023-07-13T03:11:17;2.70;;;1.42;;
48092;SDS011;33873;47.442;18.902;2023-07-13T03:13:47;3.95;;;1.87;;
48092;SDS011;33873;47.442;18.902;2023-07-13T03:16:15;4.87;;;1.98;;
48092;SDS011;33873;47.442;18.902;2023-07-13T03:18:46;4.47;;;2.10;;
48092;SDS011;33873;47.442;18.902;2023-07-13T03:21:15;4.18;;;1.87;;
48092;SDS011;33873;47.442;18.902;2023-07-13T03:23:43;7.03;;;1.80;;
48092;SDS011;33873;47.442;18.902;2023-07-13T03:26:13;6.28;;;2.37;;
48092;SDS011;33873;47.442;18.902;2023-07-13T03:28:43;3.70;;;1.73;;
48092;SDS011;33873;47.442;18.902;2023-07-13T03:31:15;3.45;;;1.35;;
48092;SDS011;33873;47.442;18.902;2023-07-13T03:33:45;5.28;;;1.80;;
48092;SDS011;33873;47.442;18.902;2023-07-13T03:36:18;5.35;;;2.05;;
48092;SDS011;33873;47.442;18.902;2023-07-13T03:38:48;5.75;;;2.75;;
48092;SDS011;33873;47.442;18.902;2023-07-13T03:41:18;5.78;;;2.12;;
48092;SDS011;33873;47.442;18.902;2023-07-13T03:43:47;5.70;;;1.75;;
48092;SDS011;33873;47.442;18.902;2023-07-13T03:46:16;3.62;;;1.92;;
48092;SDS011;33873;47.442;18.902;2023-07-13T03:48:45;3.95;;;1.37;;
48092;SDS011;33873;47.442;18.902;2023-07-13T03:51:14;4.90;;;1.77;;
48092;SDS011;33873;47.442;18.902;2023-07-13T03:53:43;7.70;;;2.53;;
48092;SDS011;33873;47.442;18.902;2023-07-13T03:56:13;5.53;;;2.08;;
48092;SDS011;33873;47.442;18.902;2023-07-13T03:58:43;4.25;;;2.03;;
48092;SDS011;33873;47.442;18.902;2023-07-13T04:01:13;3.92;;;2.00;;
48092;SDS011;33873;47.442;18.902;2023-07-13T04:03:42;6.25;;;1.85;;
48092;SDS011;33873;47.442;18.902;2023-07-13T04:06:17;8.15;;;2.65;;
48092;SDS011;33873;47.442;18.902;2023-07-13T04:08:50;5.82;;;2.40;;
48092;SDS011;33873;47.442;18.902;2023-07-13T04:11:19;5.37;;;2.00;;
48092;SDS011;33873;47.442;18.902;2023-07-13T04:13:48;4.70;;;2.17;;
48092;SDS011;33873;47.442;18.902;2023-07-13T04:16:16;3.15;;;2.05;;
48092;SDS011;33873;47.442;18.902;2023-07-13T04:18:46;3.42;;;2.03;;
48092;SDS011;33873;47.442;18.902;2023-07-13T04:21:14;6.72;;;2.62;;
48092;SDS011;33873;47.442;18.902;2023-07-13T04:23:42;7.12;;;2.30;;
48092;SDS011;33873;47.442;18.902;2023-07-13T04:26:10;5.25;;;2.50;;
48092;SDS011;33873;47.442;18.902;2023-07-13T04:28:37;4.10;;;2.05;;
48092;SDS011;33873;47.442;18.902;2023-07-13T04:31:05;5.32;;;2.20;;
48092;SDS011;33873;47.442;18.902;2023-07-13T04:33:33;5.65;;;2.35;;
48092;SDS011;33873;47.442;18.902;2023-07-13T04:36:01;5.57;;;2.95;;
48092;SDS011;33873;47.442;18.902;2023-07-13T04:38:29;4.75;;;2.45;;
48092;SDS011;33873;47.442;18.902;2023-07-13T04:40:59;7.60;;;3.03;;
48092;SDS011;33873;47.442;18.902;2023-07-13T04:43:30;4.90;;;2.28;;
48092;SDS011;33873;47.442;18.902;2023-07-13T04:46:02;11.95;;;2.10;;
48092;SDS011;33873;47.442;18.902;2023-07-13T04:48:34;3.28;;;2.03;;
48092;SDS011;33873;47.442;18.902;2023-07-13T04:51:02;4.65;;;2.47;;
48092;SDS011;33873;47.442;18.902;2023-07-13T04:53:31;5.37;;;2.10;;
48092;SDS011;33873;47.442;18.902;2023-07-13T04:56:00;7.57;;;2.45;;
48092;SDS011;33873;47.442;18.902;2023-07-13T04:58:28;5.80;;;2.50;;
48092;SDS011;33873;47.442;18.902;2023-07-13T05:00:59;5.40;;;2.42;;
48092;SDS011;33873;47.442;18.902;2023-07-13T05:03:31;8.02;;;3.15;;
48092;SDS011;33873;47.442;18.902;2023-07-13T05:05:59;7.50;;;2.67;;
48092;SDS011;33873;47.442;18.902;2023-07-13T05:08:28;4.95;;;2.00;;
48092;SDS011;33873;47.442;18.902;2023-07-13T05:10:56;6.62;;;2.45;;
48092;SDS011;33873;47.442;18.902;2023-07-13T05:13:23;6.53;;;2.50;;
48092;SDS011;33873;47.442;18.902;2023-07-13T05:15:59;5.12;;;2.70;;
48092;SDS011;33873;47.442;18.902;2023-07-13T05:18:28;7.47;;;2.95;;
48092;SDS011;33873;47.442;18.902;2023-07-13T05:21:01;4.78;;;1.87;;
48092;SDS011;33873;47.442;18.902;2023-07-13T05:23:31;6.80;;;2.03;;
48092;SDS011;33873;47.442;18.902;2023-07-13T05:25:59;4.97;;;1.80;;
48092;SDS011;33873;47.442;18.902;2023-07-13T05:28:27;5.25;;;1.85;;
48092;SDS011;33873;47.442;18.902;2023-07-13T05:30:57;3.75;;;1.77;;
48092;SDS011;33873;47.442;18.902;2023-07-13T05:33:25;2.72;;;1.27;;
48092;SDS011;33873;47.442;18.902;2023-07-13T05:35:53;6.12;;;2.03;;
48092;SDS011;33873;47.442;18.902;2023-07-13T05:38:21;4.12;;;1.83;;
48092;SDS011;33873;47.442;18.902;2023-07-13T05:40:49;2.25;;;1.00;;
48092;SDS011;33873;47.442;18.902;2023-07-13T05:43:17;4.15;;;1.80;;
48092;SDS011;33873;47.442;18.902;2023-07-13T05:45:45;3.20;;;1.35;;
48092;SDS011;33873;47.442;18.902;2023-07-13T05:48:12;3.45;;;1.55;;
48092;SDS011;33873;47.442;18.902;2023-07-13T05:50:40;4.82;;;2.28;;
48092;SDS011;33873;47.442;18.902;2023-07-13T05:53:08;8.95;;;1.45;;
48092;SDS011;33873;47.442;18.902;2023-07-13T05:55:40;11.38;;;1.65;;
48092;SDS011;33873;47.442;18.902;2023-07-13T05:58:11;2.37;;;1.00;;
48092;SDS011;33873;47.442;18.902;2023-07-13T06:00:39;12.23;;;2.17;;
48092;SDS011;33873;47.442;18.902;2023-07-13T06:03:08;8.55;;;1.70;;
48092;SDS011;33873;47.442;18.902;2023-07-13T06:05:36;2.28;;;1.30;;
48092;SDS011;33873;47.442;18.902;2023-07-13T06:08:04;3.45;;;1.27;;
48092;SDS011;33873;47.442;18.902;2023-07-13T06:10:33;3.58;;;1.33;;
48092;SDS011;33873;47.442;18.902;2023-07-13T06:13:01;2.08;;;1.25;;
48092;SDS011;33873;47.442;18.902;2023-07-13T06:15:30;5.72;;;1.75;;
48092;SDS011;33873;47.442;18.902;2023-07-13T06:17:58;1.42;;;0.90;;
48092;SDS011;33873;47.442;18.902;2023-07-13T06:20:25;3.42;;;1.80;;
48092;SDS011;33873;47.442;18.902;2023-07-13T06:22:53;3.85;;;1.67;;
48092;SDS011;33873;47.442;18.902;2023-07-13T06:25:21;3.17;;;1.45;;
48092;SDS011;33873;47.442;18.902;2023-07-13T06:27:48;1.52;;;1.02;;
48092;SDS011;33873;47.442;18.902;2023-07-13T06:30:16;4.18;;;1.35;;
48092;SDS011;33873;47.442;18.902;2023-07-13T06:32:43;1.73;;;1.10;;
48092;SDS011;33873;47.442;18.902;2023-07-13T06:35:11;2.30;;;1.27;;
48092;SDS011;33873;47.442;18.902;2023-07-13T06:37:40;2.53;;;1.20;;
48092;SDS011;33873;47.442;18.902;2023-07-13T06:40:09;2.10;;;1.02;;
48092;SDS011;33873;47.442;18.902;2023-07-13T06:42:37;4.75;;;1.40;;
48092;SDS011;33873;47.442;18.902;2023-07-13T06:45:05;5.20;;;1.15;;
48092;SDS011;33873;47.442;18.902;2023-07-13T06:47:33;1.92;;;1.25;;
48092;SDS011;33873;47.442;18.902;2023-07-13T06:50:01;2.20;;;1.10;;
48092;SDS011;33873;47.442;18.902;2023-07-13T06:52:28;2.87;;;1.35;;
48092;SDS011;33873;47.442;18.902;2023-07-13T06:54:56;3.60;;;1.35;;
48092;SDS011;33873;47.442;18.902;2023-07-13T06:57:24;2.10;;;1.02;;
48092;SDS011;33873;47.442;18.902;2023-07-13T06:59:51;3.17;;;1.30;;
48092;SDS011;33873;47.442;18.902;2023-07-13T07:02:19;3.42;;;1.70;;
48092;SDS011;33873;47.442;18.902;2023-07-13T07:04:47;10.32;;;2.12;;
48092;SDS011;33873;47.442;18.902;2023-07-13T07:07:14;3.47;;;1.45;;
48092;SDS011;33873;47.442;18.902;2023-07-13T07:09:42;3.25;;;1.83;;
48092;SDS011;33873;47.442;18.902;2023-07-13T07:12:10;3.17;;;1.52;;
48092;SDS011;33873;47.442;18.902;2023-07-13T07:14:41;2.10;;;1.25;;
48092;SDS011;33873;47.442;18.902;2023-07-13T07:17:09;2.40;;;1.45;;
48092;SDS011;33873;47.442;18.902;2023-07-13T07:19:37;2.28;;;1.17;;
48092;SDS011;33873;47.442;18.902;2023-07-13T07:22:04;3.37;;;1.90;;
48092;SDS011;33873;47.442;18.902;2023-07-13T07:24:32;2.30;;;1.40;;
48092;SDS011;33873;47.442;18.902;2023-07-13T07:27:00;3.42;;;1.52;;
48092;SDS011;33873;47.442;18.902;2023-07-13T07:29:30;3.30;;;1.50;;
48092;SDS011;33873;47.442;18.902;2023-07-13T07:32:01;2.87;;;1.52;;
48092;SDS011;33873;47.442;18.902;2023-07-13T07:34:48;9.48;;;2.03;;
48092;SDS011;33873;47.442;18.902;2023-07-13T07:37:16;3.75;;;1.55;;
48092;SDS011;33873;47.442;18.902;2023-07-13T07:39:46;4.28;;;2.28;;
48092;SDS011;33873;47.442;18.902;2023-07-13T07:42:34;6.78;;;1.75;;
48092;SDS011;33873;47.442;18.902;2023-07-13T07:45:02;4.82;;;2.20;;
48092;SDS011;33873;47.442;18.902;2023-07-13T07:47:30;3.85;;;2.12;;
48092;SDS011;33873;47.442;18.902;2023-07-13T07:49:57;3.37;;;1.55;;
48092;SDS011;33873;47.442;18.902;2023-07-13T07:52:25;7.22;;;1.67;;
48092;SDS011;33873;47.442;18.902;2023-07-13T07:54:53;2.25;;;1.40;;
48092;SDS011;33873;47.442;18.902;2023-07-13T07:57:23;4.57;;;1.50;;
48092;SDS011;33873;47.442;18.902;2023-07-13T07:59:54;3.90;;;1.73;;
48092;SDS011;33873;47.442;18.902;2023-07-13T08:02:25;3.22;;;1.58;;
48092;SDS011;33873;47.442;18.902;2023-07-13T08:04:56;3.62;;;1.50;;
48092;SDS011;33873;47.442;18.902;2023-07-13T08:07:26;4.75;;;1.73;;
48092;SDS011;33873;47.442;18.902;2023-07-13T08:09:54;3.08;;;1.27;;
48092;SDS011;33873;47.442;18.902;2023-07-13T08:12:22;4.95;;;1.30;;
48092;SDS011;33873;47.442;18.902;2023-07-13T08:14:52;2.85;;;1.48;;
48092;SDS011;33873;47.442;18.902;2023-07-13T08:17:29;3.17;;;1.58;;
48092;SDS011;33873;47.442;18.902;2023-07-13T08:19:57;4.72;;;1.92;;
48092;SDS011;33873;47.442;18.902;2023-07-13T08:22:24;4.57;;;1.70;;
48092;SDS011;33873;47.442;18.902;2023-07-13T08:24:52;4.97;;;1.75;;
48092;SDS011;33873;47.442;18.902;2023-07-13T08:27:23;3.70;;;1.35;;
48092;SDS011;33873;47.442;18.902;2023-07-13T08:29:52;2.97;;;1.50;;
48092;SDS011;33873;47.442;18.902;2023-07-13T08:32:21;3.00;;;1.67;;
48092;SDS011;33873;47.442;18.902;2023-07-13T08:34:50;4.40;;;1.73;;
48092;SDS011;33873;47.442;18.902;2023-07-13T08:37:18;3.53;;;1.58;;
48092;SDS011;33873;47.442;18.902;2023-07-13T08:39:47;6.62;;;1.75;;
48092;SDS011;33873;47.442;18.902;2023-07-13T08:44:55;4.62;;;2.20;;
48092;SDS011;33873;47.442;18.902;2023-07-13T08:47:25;3.33;;;1.73;;
48092;SDS011;33873;47.442;18.902;2023-07-13T08:49:53;4.62;;;1.65;;
48092;SDS011;33873;47.442;18.902;2023-07-13T08:55:24;3.97;;;1.90;;
48092;SDS011;33873;47.442;18.902;2023-07-13T08:58:11;4.15;;;1.67;;
48092;SDS011;33873;47.442;18.902;2023-07-13T09:03:12;3.60;;;2.12;;
48092;SDS011;33873;47.442;18.902;2023-07-13T09:05:49;3.72;;;2.05;;
48092;SDS011;33873;47.442;18.902;2023-07-13T09:08:27;6.43;;;2.58;;
48092;SDS011;33873;47.442;18.902;2023-07-13T09:14:06;3.50;;;1.87;;
48092;SDS011;33873;47.442;18.902;2023-07-13T09:16:39;5.50;;;1.97;;
48092;SDS011;33873;47.442;18.902;2023-07-13T09:19:08;4.18;;;2.08;;
48092;SDS011;33873;47.442;18.902;2023-07-13T09:21:39;3.75;;;1.62;;
48092;SDS011;33873;47.442;18.902;2023-07-13T09:26:57;3.85;;;1.90;;
48092;SDS011;33873;47.442;18.902;2023-07-13T09:29:30;4.50;;;2.05;;
48092;SDS011;33873;47.442;18.902;2023-07-13T09:32:03;4.32;;;2.25;;
48092;SDS011;33873;47.442;18.902;2023-07-13T09:34:32;4.68;;;2.60;;
48092;SDS011;33873;47.442;18.902;2023-07-13T09:37:00;4.47;;;2.25;;
48092;SDS011;33873;47.442;18.902;2023-07-13T09:39:29;4.82;;;2.22;;
48092;SDS011;33873;47.442;18.902;2023-07-13T09:44:39;5.55;;;2.10;;
48092;SDS011;33873;47.442;18.902;2023-07-13T09:47:19;8.05;;;2.45;;
48092;SDS011;33873;47.442;18.902;2023-07-13T09:50:10;4.70;;;2.30;;
48092;SDS011;33873;47.442;18.902;2023-07-13T09:52:44;4.22;;;1.95;;
48092;SDS011;33873;47.442;18.902;2023-07-13T09:55:30;7.93;;;2.58;;
48092;SDS011;33873;47.442;18.902;2023-07-13T09:58:06;3.60;;;1.67;;
48092;SDS011;33873;47.442;18.902;2023-07-13T10:00:38;4.15;;;1.90;;
48092;SDS011;33873;47.442;18.902;2023-07-13T10:03:16;7.12;;;2.17;;
48092;SDS011;33873;47.442;18.902;2023-07-13T10:05:47;4.80;;;2.03;;
48092;SDS011;33873;47.442;18.902;2023-07-13T10:08:28;4.43;;;1.65;;
48092;SDS011;33873;47.442;18.902;2023-07-13T10:10:58;2.92;;;1.55;;
48092;SDS011;33873;47.442;18.902;2023-07-13T10:13:36;4.80;;;1.80;;
48092;SDS011;33873;47.442;18.902;2023-07-13T10:16:05;2.85;;;1.50;;
48092;SDS011;33873;47.442;18.902;2023-07-13T10:18:44;4.93;;;1.70;;
48092;SDS011;33873;47.442;18.902;2023-07-13T10:21:18;3.97;;;1.85;;
48092;SDS011;33873;47.442;18.902;2023-07-13T10:26:57;4.32;;;1.87;;
48092;SDS011;33873;47.442;18.902;2023-07-13T10:29:34;4.60;;;2.12;;
48092;SDS011;33873;47.442;18.902;2023-07-13T10:32:09;4.85;;;2.05;;
48092;SDS011;33873;47.442;18.902;2023-07-13T10:34:38;4.82;;;2.03;;
48092;SDS011;33873;47.442;18.902;2023-07-13T10:37:07;4.05;;;1.95;;
48092;SDS011;33873;47.442;18.902;2023-07-13T10:39:44;4.65;;;2.40;;
48092;SDS011;33873;47.442;18.902;2023-07-13T10:42:13;5.35;;;2.00;;
48092;SDS011;33873;47.442;18.902;2023-07-13T10:44:52;6.75;;;2.83;;
48092;SDS011;33873;47.442;18.902;2023-07-13T10:47:20;6.00;;;2.08;;
48092;SDS011;33873;47.442;18.902;2023-07-13T10:49:48;4.10;;;1.83;;
48092;SDS011;33873;47.442;18.902;2023-07-13T11:00:49;4.20;;;2.08;;
48092;SDS011;33873;47.442;18.902;2023-07-13T11:03:21;3.53;;;1.48;;
48092;SDS011;33873;47.442;18.902;2023-07-13T11:05:50;6.07;;;1.70;;
48092;SDS011;33873;47.442;18.902;2023-07-13T11:08:20;3.35;;;1.87;;
48092;SDS011;33873;47.442;18.902;2023-07-13T11:10:59;5.43;;;2.42;;
48092;SDS011;33873;47.442;18.902;2023-07-13T11:18:51;6.07;;;2.40;;
48092;SDS011;33873;47.442;18.902;2023-07-13T11:21:25;4.75;;;2.30;;
48092;SDS011;33873;47.442;18.902;2023-07-13T11:24:02;4.12;;;2.00;;
48092;SDS011;33873;47.442;18.902;2023-07-13T11:29:23;7.62;;;1.90;;
48092;SDS011;33873;47.442;18.902;2023-07-13T11:31:56;3.37;;;1.95;;
48092;SDS011;33873;47.442;18.902;2023-07-13T11:34:35;4.22;;;2.42;;
48092;SDS011;33873;47.442;18.902;2023-07-13T11:37:08;4.62;;;2.12;;
48092;SDS011;33873;47.442;18.902;2023-07-13T11:39:41;5.72;;;2.20;;
48092;SDS011;33873;47.442;18.902;2023-07-13T11:42:13;3.17;;;1.60;;
48092;SDS011;33873;47.442;18.902;2023-07-13T11:44:47;4.20;;;2.22;;
48092;SDS011;33873;47.442;18.902;2023-07-13T11:47:39;7.50;;;2.83;;
48092;SDS011;33873;47.442;18.902;2023-07-13T11:50:16;2.72;;;1.45;;
48092;SDS011;33873;47.442;18.902;2023-07-13T11:52:45;2.87;;;1.83;;
48092;SDS011;33873;47.442;18.902;2023-07-13T11:55:14;6.65;;;2.25;;
48092;SDS011;33873;47.442;18.902;2023-07-13T11:57:50;4.50;;;2.17;;
48092;SDS011;33873;47.442;18.902;2023-07-13T12:00:22;4.65;;;2.55;;
48092;SDS011;33873;47.442;18.902;2023-07-13T12:02:52;4.28;;;1.45;;
48092;SDS011;33873;47.442;18.902;2023-07-13T12:05:22;4.55;;;2.30;;
48092;SDS011;33873;47.442;18.902;2023-07-13T12:07:50;4.35;;;2.15;;
48092;SDS011;33873;47.442;18.902;2023-07-13T12:10:19;3.37;;;1.92;;
48092;SDS011;33873;47.442;18.902;2023-07-13T12:13:00;4.40;;;2.35;;
48092;SDS011;33873;47.442;18.902;2023-07-13T12:15:37;4.45;;;1.95;;
48092;SDS011;33873;47.442;18.902;2023-07-13T12:18:11;4.65;;;2.15;;
48092;SDS011;33873;47.442;18.902;2023-07-13T12:20:42;5.65;;;2.75;;
48092;SDS011;33873;47.442;18.902;2023-07-13T12:23:30;4.62;;;2.67;;
48092;SDS011;33873;47.442;18.902;2023-07-13T12:26:01;5.25;;;2.95;;
48092;SDS011;33873;47.442;18.902;2023-07-13T12:31:03;4.70;;;2.35;;
48092;SDS011;33873;47.442;18.902;2023-07-13T12:33:32;5.55;;;2.80;;
48092;SDS011;33873;47.442;18.902;2023-07-13T12:36:02;4.07;;;2.08;;
48092;SDS011;33873;47.442;18.902;2023-07-13T12:38:31;4.22;;;2.17;;
48092;SDS011;33873;47.442;18.902;2023-07-13T12:40:59;6.03;;;2.75;;
48092;SDS011;33873;47.442;18.902;2023-07-13T12:43:28;5.70;;;2.55;;
48092;SDS011;33873;47.442;18.902;2023-07-13T12:46:03;5.95;;;2.90;;
48092;SDS011;33873;47.442;18.902;2023-07-13T12:48:39;4.62;;;2.25;;
48092;SDS011;33873;47.442;18.902;2023-07-13T12:51:20;5.40;;;2.58;;
48092;SDS011;33873;47.442;18.902;2023-07-13T12:53:50;4.55;;;2.50;;
48092;SDS011;33873;47.442;18.902;2023-07-13T12:58:56;8.30;;;2.78;;
48092;SDS011;33873;47.442;18.902;2023-07-13T13:01:26;3.25;;;1.75;;
48092;SDS011;33873;47.442;18.902;2023-07-13T13:03:55;5.20;;;2.50;;
48092;SDS011;33873;47.442;18.902;2023-07-13T13:06:25;5.25;;;2.75;;
48092;SDS011;33873;47.442;18.902;2023-07-13T13:08:55;3.15;;;1.85;;
48092;SDS011;33873;47.442;18.902;2023-07-13T13:11:26;4.50;;;2.22;;
48092;SDS011;33873;47.442;18.902;2023-07-13T13:13:55;4.50;;;2.47;;
48092;SDS011;33873;47.442;18.902;2023-07-13T13:18:54;4.03;;;2.40;;
48092;SDS011;33873;47.442;18.902;2023-07-13T13:21:24;4.10;;;2.30;;
48092;SDS011;33873;47.442;18.902;2023-07-13T13:23:53;4.37;;;2.17;;
48092;SDS011;33873;47.442;18.902;2023-07-13T13:26:21;4.57;;;2.42;;
48092;SDS011;33873;47.442;18.902;2023-07-13T13:28:49;3.58;;;1.83;;
48092;SDS011;33873;47.442;18.902;2023-07-13T13:31:17;4.03;;;2.25;;
48092;SDS011;33873;47.442;18.902;2023-07-13T13:33:45;3.90;;;2.08;;
48092;SDS011;33873;47.442;18.902;2023-07-13T13:36:16;4.37;;;2.47;;
48092;SDS011;33873;47.442;18.902;2023-07-13T13:38:49;3.92;;;2.40;;
48092;SDS011;33873;47.442;18.902;2023-07-13T13:41:17;3.40;;;1.70;;
48092;SDS011;33873;47.442;18.902;2023-07-13T13:43:45;5.07;;;2.37;;
48092;SDS011;33873;47.442;18.902;2023-07-13T13:46:17;3.53;;;1.50;;
48092;SDS011;33873;47.442;18.902;2023-07-13T13:48:46;3.87;;;2.05;;
48092;SDS011;33873;47.442;18.902;2023-07-13T13:51:15;4.12;;;2.08;;
48092;SDS011;33873;47.442;18.902;2023-07-13T13:53:45;3.67;;;2.00;;
48092;SDS011;33873;47.442;18.902;2023-07-13T13:56:14;4.55;;;2.25;;
48092;SDS011;33873;47.442;18.902;2023-07-13T13:58:41;4.82;;;2.42;;
48092;SDS011;33873;47.442;18.902;2023-07-13T14:01:21;5.50;;;2.40;;
48092;SDS011;33873;47.442;18.902;2023-07-13T14:03:52;5.53;;;2.47;;
48092;SDS011;33873;47.442;18.902;2023-07-13T14:06:19;4.18;;;2.12;;
48092;SDS011;33873;47.442;18.902;2023-07-13T14:08:47;4.70;;;2.30;;
48092;SDS011;33873;47.442;18.902;2023-07-13T14:11:16;4.68;;;2.20;;
48092;SDS011;33873;47.442;18.902;2023-07-13T14:13:45;4.00;;;2.28;;
48092;SDS011;33873;47.442;18.902;2023-07-13T14:16:17;5.00;;;1.70;;
48092;SDS011;33873;47.442;18.902;2023-07-13T14:18:46;4.00;;;2.15;;
48092;SDS011;33873;47.442;18.902;2023-07-13T14:21:19;4.30;;;2.45;;
48092;SDS011;33873;47.442;18.902;2023-07-13T14:23:48;4.07;;;2.47;;
48092;SDS011;33873;47.442;18.902;2023-07-13T14:26:18;4.20;;;2.10;;
48092;SDS011;33873;47.442;18.902;2023-07-13T14:28:48;4.62;;;2.00;;
48092;SDS011;33873;47.442;18.902;2023-07-13T14:31:18;4.32;;;1.87;;
48092;SDS011;33873;47.442;18.902;2023-07-13T14:33:46;4.47;;;1.95;;
48092;SDS011;33873;47.442;18.902;2023-07-13T14:36:29;4.90;;;2.20;;
48092;SDS011;33873;47.442;18.902;2023-07-13T14:38:58;4.78;;;2.28;;
48092;SDS011;33873;47.442;18.902;2023-07-13T14:41:27;4.15;;;2.45;;
48092;SDS011;33873;47.442;18.902;2023-07-13T14:43:55;4.30;;;2.22;;
48092;SDS011;33873;47.442;18.902;2023-07-13T14:46:30;4.65;;;2.22;;
48092;SDS011;33873;47.442;18.902;2023-07-13T14:49:03;3.67;;;1.87;;
48092;SDS011;33873;47.442;18.902;2023-07-13T14:51:33;4.53;;;1.73;;
48092;SDS011;33873;47.442;18.902;2023-07-13T14:54:02;6.10;;;2.58;;
48092;SDS011;33873;47.442;18.902;2023-07-13T14:56:32;4.07;;;2.10;;
48092;SDS011;33873;47.442;18.902;2023-07-13T14:59:00;4.12;;;2.25;;
48092;SDS011;33873;47.442;18.902;2023-07-13T15:01:28;4.07;;;2.17;;
48092;SDS011;33873;47.442;18.902;2023-07-13T15:03:56;4.30;;;2.22;;
48092;SDS011;33873;47.442;18.902;2023-07-13T15:06:24;4.60;;;2.53;;
48092;SDS011;33873;47.442;18.902;2023-07-13T15:08:52;2.75;;;1.62;;
48092;SDS011;33873;47.442;18.902;2023-07-13T15:11:19;4.22;;;2.03;;
48092;SDS011;33873;47.442;18.902;2023-07-13T15:13:47;3.72;;;2.10;;
48092;SDS011;33873;47.442;18.902;2023-07-13T15:16:22;6.20;;;2.62;;
48092;SDS011;33873;47.442;18.902;2023-07-13T15:18:51;3.90;;;1.90;;
48092;SDS011;33873;47.442;18.902;2023-07-13T15:21:20;5.00;;;2.62;;
48092;SDS011;33873;47.442;18.902;2023-07-13T15:23:49;6.60;;;2.42;;
48092;SDS011;33873;47.442;18.902;2023-07-13T15:26:17;3.90;;;1.87;;
48092;SDS011;33873;47.442;18.902;2023-07-13T15:28:46;3.65;;;1.70;;
48092;SDS011;33873;47.442;18.902;2023-07-13T15:31:19;3.87;;;1.98;;
48092;SDS011;33873;47.442;18.902;2023-07-13T15:33:52;3.20;;;1.85;;
48092;SDS011;33873;47.442;18.902;2023-07-13T15:36:20;4.35;;;2.12;;
48092;SDS011;33873;47.442;18.902;2023-07-13T15:38:50;5.43;;;2.40;;